createdAt,value
2019-03-05T00:00:44.795Z,1.47
2019-03-05T00:03:13.717Z,1.50
2019-03-05T00:05:42.594Z,1.42
2019-03-05T00:08:11.465Z,1.65
2019-03-05T00:10:40.390Z,1.60
2019-03-05T00:13:09.259Z,1.70
2019-03-05T00:15:38.249Z,1.17
2019-03-05T00:18:07.024Z,1.62
2019-03-05T00:20:35.956Z,1.35
2019-03-05T00:23:04.941Z,2.02
2019-03-05T00:25:33.728Z,1.52
2019-03-05T00:28:09.124Z,1.40
2019-03-05T00:30:59.216Z,1.62
2019-03-05T00:34:05.179Z,1.40
2019-03-05T00:37:04.046Z,1.70
2019-03-05T00:40:20.610Z,1.60
2019-03-05T00:43:22.997Z,1.60
2019-03-05T00:45:59.317Z,1.70
2019-03-05T00:49:18.070Z,1.95
2019-03-05T00:52:14.081Z,1.82
2019-03-05T00:55:09.808Z,2.10
2019-03-05T00:58:24.601Z,2.00
2019-03-05T01:01:17.910Z,1.62
2019-03-05T01:04:17.117Z,1.70
2019-03-05T01:06:45.853Z,1.50
2019-03-05T01:09:17.265Z,1.30
2019-03-05T01:11:46.059Z,1.57
2019-03-05T01:14:14.837Z,1.50
2019-03-05T01:16:43.589Z,1.67
2019-03-05T01:19:12.468Z,1.45
2019-03-05T01:21:41.267Z,1.60
2019-03-05T01:24:10.065Z,1.75
2019-03-05T01:26:38.892Z,1.30
2019-03-05T01:29:07.620Z,1.77
2019-03-05T01:31:55.387Z,1.65
2019-03-05T01:34:43.228Z,1.55
2019-03-05T01:37:12.562Z,1.42
2019-03-05T01:39:50.422Z,1.72
2019-03-05T01:42:19.330Z,1.40
2019-03-05T01:44:48.183Z,1.20
2019-03-05T01:47:16.898Z,1.62
2019-03-05T01:49:45.758Z,1.80
2019-03-05T01:52:14.585Z,1.72
2019-03-05T01:54:43.312Z,1.20
2019-03-05T01:57:12.264Z,1.50
2019-03-05T01:59:41.009Z,1.27
2019-03-05T02:02:09.909Z,1.57
2019-03-05T02:04:38.648Z,1.40
2019-03-05T02:07:07.405Z,1.40
2019-03-05T02:09:36.201Z,1.45
2019-03-05T02:12:05.015Z,1.30
2019-03-05T02:14:33.931Z,1.70
2019-03-05T02:17:02.715Z,1.60
2019-03-05T02:19:39.808Z,1.60
2019-03-05T02:22:11.811Z,2.00
2019-03-05T02:25:02.670Z,1.92
2019-03-05T02:28:12.037Z,1.98
2019-03-05T02:31:16.755Z,1.55
2019-03-05T02:34:22.469Z,2.20
2019-03-05T02:37:15.205Z,1.95
2019-03-05T02:39:50.129Z,1.83
2019-03-05T02:42:41.152Z,1.95
2019-03-05T02:45:48.382Z,2.02
2019-03-05T02:48:51.402Z,1.57
2019-03-05T02:51:59.922Z,2.25
2019-03-05T02:55:25.586Z,1.50
2019-03-05T02:57:53.025Z,1.80
2019-03-05T03:00:33.658Z,1.40
2019-03-05T03:03:09.025Z,1.52
2019-03-05T03:05:52.054Z,1.65
2019-03-05T03:08:22.428Z,1.90
2019-03-05T03:10:51.232Z,1.85
2019-03-05T03:13:20.112Z,1.50
2019-03-05T03:15:48.829Z,1.92
2019-03-05T03:18:17.639Z,1.70
2019-03-05T03:20:46.463Z,1.50
2019-03-05T03:23:15.302Z,1.47
2019-03-05T03:25:44.127Z,1.62
2019-03-05T03:28:12.837Z,1.85
2019-03-05T03:30:41.731Z,1.75
2019-03-05T03:33:10.593Z,1.40
2019-03-05T03:35:39.342Z,1.57
2019-03-05T03:38:08.206Z,1.87
2019-03-05T03:40:37.010Z,1.35
2019-03-05T03:43:05.826Z,1.52
2019-03-05T03:45:34.612Z,2.00
2019-03-05T03:48:03.389Z,1.87
2019-03-05T03:50:32.200Z,1.90
2019-03-05T03:53:01.020Z,1.57
2019-03-05T03:55:29.886Z,1.60
2019-03-05T03:57:58.807Z,2.00
2019-03-05T04:00:27.664Z,1.80
2019-03-05T04:02:56.671Z,1.60
2019-03-05T04:05:25.666Z,1.85
2019-03-05T04:07:54.450Z,2.12
2019-03-05T04:10:23.268Z,2.25
2019-03-05T04:12:52.207Z,2.15
2019-03-05T04:15:21.555Z,1.87
2019-03-05T04:17:50.436Z,1.80
2019-03-05T04:20:28.698Z,1.30
2019-03-05T04:22:57.422Z,1.47
2019-03-05T04:25:26.281Z,1.80
2019-03-05T04:27:55.224Z,1.80
2019-03-05T04:30:24.001Z,1.50
2019-03-05T04:32:52.923Z,1.80
2019-03-05T04:35:21.812Z,2.22
2019-03-05T04:37:50.531Z,1.65
2019-03-05T04:40:19.449Z,2.05
2019-03-05T04:42:48.201Z,2.12
2019-03-05T04:45:39.689Z,2.17
2019-03-05T04:48:08.466Z,2.00
2019-03-05T04:50:42.067Z,1.82
2019-03-05T04:53:10.927Z,1.90
2019-03-05T04:55:39.735Z,1.90
2019-03-05T04:58:08.560Z,2.20
2019-03-05T05:00:37.483Z,2.00
2019-03-05T05:03:06.237Z,1.80
2019-03-05T05:05:34.987Z,2.02
2019-03-05T05:08:03.854Z,1.60
2019-03-05T05:10:32.836Z,1.90
2019-03-05T05:13:01.668Z,1.85
2019-03-05T05:15:31.975Z,2.15
2019-03-05T05:18:00.900Z,1.77
2019-03-05T05:20:29.769Z,1.90
2019-03-05T05:22:58.564Z,1.87
2019-03-05T05:25:27.296Z,1.80
2019-03-05T05:27:56.086Z,1.70
2019-03-05T05:30:36.170Z,1.72
2019-03-05T05:33:05.150Z,1.98
2019-03-05T05:35:33.991Z,1.70
2019-03-05T05:38:02.812Z,2.58
2019-03-05T05:40:33.336Z,1.90
2019-03-05T05:43:02.162Z,2.12
2019-03-05T05:45:45.609Z,1.90
2019-03-05T05:48:14.360Z,1.75
2019-03-05T05:50:43.180Z,2.17
2019-03-05T05:53:11.986Z,1.62
2019-03-05T05:55:40.890Z,2.08
2019-03-05T05:58:09.750Z,1.95
2019-03-05T06:00:42.283Z,1.92
2019-03-05T06:03:11.105Z,2.10
2019-03-05T06:05:40.010Z,1.90
2019-03-05T06:08:08.851Z,2.30
2019-03-05T06:10:37.648Z,1.85
2019-03-05T06:13:06.527Z,1.80
2019-03-05T06:15:35.335Z,1.60
2019-03-05T06:18:04.206Z,2.15
2019-03-05T06:20:33.047Z,1.82
2019-03-05T06:23:01.843Z,2.02
2019-03-05T06:25:30.642Z,1.80
2019-03-05T06:27:59.400Z,1.65
2019-03-05T06:30:28.362Z,2.20
2019-03-05T06:32:57.170Z,2.10
2019-03-05T06:35:26.198Z,1.90
2019-03-05T06:37:55.103Z,1.90
2019-03-05T06:40:23.968Z,2.42
2019-03-05T06:42:52.846Z,2.35
2019-03-05T06:45:21.727Z,2.02
2019-03-05T06:47:50.693Z,2.58
2019-03-05T06:50:19.576Z,2.30
2019-03-05T06:52:48.376Z,2.77
2019-03-05T06:55:17.274Z,1.70
2019-03-05T06:57:46.148Z,3.05
2019-03-05T07:00:27.391Z,2.10
2019-03-05T07:02:56.391Z,2.20
2019-03-05T07:06:01.237Z,2.50
2019-03-05T07:08:30.082Z,2.60
2019-03-05T07:11:42.094Z,1.95
2019-03-05T07:14:16.923Z,2.08
2019-03-05T07:17:03.443Z,2.20
2019-03-05T07:19:58.013Z,2.05
2019-03-05T07:22:39.692Z,2.00
2019-03-05T07:25:08.670Z,2.10
2019-03-05T07:27:39.730Z,2.05
2019-03-05T07:30:19.548Z,2.08
2019-03-05T07:32:48.882Z,2.17
2019-03-05T07:35:20.902Z,1.70
2019-03-05T07:37:49.833Z,1.72
2019-03-05T07:40:18.673Z,1.80
2019-03-05T07:42:47.525Z,1.90
2019-03-05T07:45:16.355Z,1.62
2019-03-05T07:47:45.217Z,1.70
2019-03-05T07:50:14.160Z,1.62
2019-03-05T07:52:42.914Z,1.55
2019-03-05T07:55:14.235Z,2.10
2019-03-05T07:57:43.158Z,1.50
2019-03-05T08:00:17.624Z,1.90
2019-03-05T08:02:46.454Z,1.50
2019-03-05T08:05:15.804Z,1.50
2019-03-05T08:07:44.769Z,1.70
2019-03-05T08:10:31.402Z,1.80
2019-03-05T08:13:23.066Z,1.65
2019-03-05T08:16:12.849Z,1.60
2019-03-05T08:18:41.736Z,1.72
2019-03-05T08:21:10.584Z,1.62
2019-03-05T08:23:39.487Z,1.40
2019-03-05T08:26:08.282Z,1.50
2019-03-05T08:28:37.228Z,1.57
2019-03-05T08:31:06.022Z,1.47
2019-03-05T08:33:34.917Z,1.72
2019-03-05T08:36:04.292Z,1.62
2019-03-05T08:38:33.069Z,1.42
2019-03-05T08:41:01.941Z,1.62
2019-03-05T08:43:30.711Z,1.50
2019-03-05T08:45:59.636Z,1.77
2019-03-05T08:48:28.507Z,1.90
2019-03-05T08:50:57.232Z,2.08
2019-03-05T08:53:26.129Z,2.45
2019-03-05T08:55:55.097Z,2.37
2019-03-05T08:58:24.035Z,2.20
2019-03-05T09:00:52.833Z,2.72
2019-03-05T09:03:21.697Z,2.12
2019-03-05T09:05:50.468Z,2.58
2019-03-05T09:08:19.282Z,2.20
2019-03-05T09:10:48.090Z,2.10
2019-03-05T09:13:17.033Z,1.70
2019-03-05T09:15:45.970Z,2.08
2019-03-05T09:18:14.899Z,1.50
2019-03-05T09:20:43.839Z,1.90
2019-03-05T09:23:12.846Z,2.45
2019-03-05T09:25:41.679Z,2.10
2019-03-05T09:28:10.500Z,2.25
2019-03-05T09:30:39.434Z,2.02
2019-03-05T09:33:08.430Z,2.00
2019-03-05T09:35:37.400Z,1.80
2019-03-05T09:38:06.375Z,1.50
2019-03-05T09:40:35.304Z,1.90
2019-03-05T09:43:04.128Z,2.15
2019-03-05T09:45:33.087Z,1.67
2019-03-05T09:48:01.813Z,1.80
2019-03-05T09:50:32.193Z,1.72
2019-03-05T09:53:01.293Z,4.25
2019-03-05T09:55:34.171Z,10.68
2019-03-05T09:58:08.118Z,4.58
2019-03-05T10:00:33.516Z,2.52
2019-03-05T10:03:02.273Z,2.77
2019-03-05T10:05:31.085Z,2.42
2019-03-05T10:08:00.011Z,3.20
2019-03-05T10:10:28.831Z,2.42
2019-03-05T10:12:58.987Z,2.30
2019-03-05T10:15:28.282Z,2.20
2019-03-05T10:17:57.244Z,2.50
2019-03-05T10:20:26.168Z,2.50
2019-03-05T10:22:57.850Z,2.27
2019-03-05T10:25:25.936Z,2.20
2019-03-05T10:27:55.076Z,2.10
2019-03-05T10:30:25.915Z,1.90
2019-03-05T10:32:54.937Z,1.82
2019-03-05T10:35:25.442Z,2.30
2019-03-05T10:37:56.502Z,2.30
2019-03-05T10:40:27.678Z,1.80
2019-03-05T10:43:07.796Z,2.00
2019-03-05T10:45:27.262Z,1.77
2019-03-05T10:47:56.381Z,2.30
2019-03-05T10:50:26.196Z,2.40
2019-03-05T10:52:55.348Z,1.70
2019-03-05T10:55:26.562Z,1.95
2019-03-05T10:57:55.438Z,2.00
2019-03-05T11:00:30.198Z,1.90
2019-03-05T11:02:59.173Z,2.00
2019-03-05T11:05:29.322Z,1.82
2019-03-05T11:07:58.275Z,1.90
2019-03-05T11:10:28.564Z,1.82
2019-03-05T11:12:57.475Z,1.60
2019-03-05T11:15:26.822Z,2.15
2019-03-05T11:17:55.819Z,1.87
2019-03-05T11:20:24.919Z,2.00
2019-03-05T11:22:53.895Z,1.98
2019-03-05T11:25:22.911Z,2.30
2019-03-05T11:27:51.881Z,2.02
2019-03-05T11:30:23.127Z,2.00
2019-03-05T11:32:51.937Z,1.80
2019-03-05T11:35:22.967Z,1.60
2019-03-05T11:37:51.776Z,1.65
2019-03-05T11:40:21.444Z,1.80
2019-03-05T11:42:50.525Z,1.80
2019-03-05T11:45:21.675Z,1.60
2019-03-05T11:47:50.622Z,1.65
2019-03-05T11:50:19.482Z,1.50
2019-03-05T11:52:48.380Z,1.77
2019-03-05T11:55:18.425Z,1.90
2019-03-05T11:57:47.320Z,1.65
2019-03-05T12:00:20.748Z,1.80
2019-03-05T12:02:49.727Z,1.70
2019-03-05T12:05:18.622Z,1.77
2019-03-05T12:07:47.557Z,1.85
2019-03-05T12:10:18.112Z,1.75
2019-03-05T12:12:46.966Z,1.60
2019-03-05T12:15:16.585Z,1.40
2019-03-05T12:17:45.457Z,1.85
2019-03-05T12:20:14.361Z,1.80
2019-03-05T12:22:43.223Z,1.92
2019-03-05T12:25:14.589Z,1.70
2019-03-05T12:27:43.440Z,2.58
2019-03-05T12:30:15.344Z,2.30
2019-03-05T12:32:44.179Z,2.60
2019-03-05T12:35:13.435Z,2.60
2019-03-05T12:37:42.299Z,2.70
2019-03-05T12:40:12.217Z,3.58
2019-03-05T12:42:41.051Z,3.55
2019-03-05T12:45:10.410Z,3.80
2019-03-05T12:47:39.256Z,4.00
2019-03-05T12:50:11.583Z,3.67
2019-03-05T12:52:40.458Z,3.45
2019-03-05T12:55:09.432Z,3.25
2019-03-05T12:57:38.248Z,3.50
2019-03-05T13:00:10.035Z,3.50
2019-03-05T13:02:38.950Z,3.27
2019-03-05T13:05:10.138Z,3.77
2019-03-05T13:07:38.937Z,3.52
2019-03-05T13:10:09.692Z,3.10
2019-03-05T13:12:40.130Z,3.15
2019-03-05T13:15:11.396Z,3.00
2019-03-05T13:17:40.368Z,3.02
2019-03-05T13:20:12.594Z,3.30
2019-03-05T13:22:42.612Z,2.77
2019-03-05T13:25:12.847Z,2.37
2019-03-05T13:27:41.665Z,2.80
2019-03-05T13:30:13.479Z,2.52
2019-03-05T13:32:42.552Z,2.72
2019-03-05T13:35:14.241Z,2.70
2019-03-05T13:37:43.876Z,2.40
2019-03-05T13:40:34.248Z,2.60
2019-03-05T13:43:01.617Z,2.75
2019-03-05T13:45:30.675Z,2.40
2019-03-05T13:48:06.278Z,2.75
2019-03-05T13:51:03.066Z,2.60
2019-03-05T13:54:11.149Z,2.77
2019-03-05T13:57:35.409Z,2.60
2019-03-05T14:02:53.305Z,2.62
2019-03-05T14:05:51.990Z,2.75
2019-03-05T14:08:56.410Z,3.02
2019-03-05T14:11:25.362Z,2.70
2019-03-05T14:13:54.429Z,2.50
2019-03-05T14:16:23.592Z,2.50
2019-03-05T14:18:52.599Z,2.85
2019-03-05T14:21:21.705Z,3.00
2019-03-05T14:23:50.652Z,2.95
2019-03-05T14:26:19.624Z,2.98
2019-03-05T14:28:50.182Z,2.80
2019-03-05T14:31:19.121Z,2.95
2019-03-05T14:33:50.325Z,2.60
2019-03-05T14:36:19.308Z,2.70
2019-03-05T14:38:49.706Z,2.62
2019-03-05T14:41:18.710Z,2.40
2019-03-05T14:43:47.669Z,3.20
2019-03-05T14:46:16.590Z,2.37
2019-03-05T14:48:45.678Z,2.85
2019-03-05T14:51:14.578Z,15.38
2019-03-05T14:53:43.484Z,30.60
2019-03-05T14:56:12.600Z,13.60
2019-03-05T14:58:41.537Z,9.10
2019-03-05T15:01:10.575Z,7.87
2019-03-05T15:03:39.806Z,6.75
2019-03-05T15:06:08.740Z,5.58
2019-03-05T15:08:37.829Z,5.40
2019-03-05T15:11:06.760Z,5.12
2019-03-05T15:13:35.952Z,4.95
2019-03-05T15:16:05.787Z,5.85
2019-03-05T15:18:34.927Z,5.00
2019-03-05T15:21:04.105Z,5.08
2019-03-05T15:23:33.142Z,4.80
2019-03-05T15:26:02.990Z,4.78
2019-03-05T15:28:31.887Z,5.35
2019-03-05T15:31:01.131Z,5.03
2019-03-05T15:33:30.362Z,4.83
2019-03-05T15:35:59.495Z,4.92
2019-03-05T15:38:28.492Z,5.42
2019-03-05T15:40:58.935Z,5.15
2019-03-05T15:43:28.436Z,5.10
2019-03-05T15:45:57.513Z,4.65
2019-03-05T15:48:26.640Z,4.62
2019-03-05T15:50:55.789Z,4.95
2019-03-05T15:53:27.573Z,4.80
2019-03-05T15:55:56.180Z,4.15
2019-03-05T15:58:25.368Z,4.00
2019-03-05T16:00:54.334Z,4.45
2019-03-05T16:03:23.436Z,4.62
2019-03-05T16:05:53.979Z,4.50
2019-03-05T16:08:25.218Z,4.47
2019-03-05T16:10:55.999Z,3.85
2019-03-05T16:13:25.154Z,4.33
2019-03-05T16:15:54.112Z,3.87
2019-03-05T16:18:23.179Z,3.90
2019-03-05T16:20:52.111Z,4.08
2019-03-05T16:23:21.087Z,3.75
2019-03-05T16:25:51.878Z,4.03
2019-03-05T16:28:21.089Z,3.65
2019-03-05T16:31:10.921Z,3.65
2019-03-05T16:33:52.045Z,3.65
2019-03-05T16:36:31.647Z,3.65
2019-03-05T16:39:35.055Z,3.80
2019-03-05T16:42:23.119Z,4.08
2019-03-05T16:45:23.133Z,3.80
2019-03-05T16:48:09.216Z,3.90
2019-03-05T16:50:51.414Z,3.65
2019-03-05T16:53:30.354Z,3.37
2019-03-05T16:56:16.942Z,3.40
2019-03-05T16:59:03.907Z,3.30
2019-03-05T17:01:54.646Z,3.55
2019-03-05T17:04:35.716Z,3.20
2019-03-05T17:07:21.700Z,3.17
2019-03-05T17:10:08.205Z,3.50
2019-03-05T17:12:37.191Z,3.12
2019-03-05T17:15:06.357Z,3.17
2019-03-05T17:17:35.691Z,3.15
2019-03-05T17:20:05.041Z,3.60
2019-03-05T17:22:34.172Z,3.45
2019-03-05T17:25:04.603Z,3.00
2019-03-05T17:27:34.095Z,3.00
2019-03-05T17:30:03.416Z,3.10
2019-03-05T17:32:32.559Z,3.15
2019-03-05T17:35:01.853Z,3.10
2019-03-05T17:37:31.011Z,3.10
2019-03-05T17:40:01.328Z,3.35
2019-03-05T17:42:30.787Z,3.25
2019-03-05T17:44:59.777Z,3.47
2019-03-05T17:47:29.186Z,2.90
2019-03-05T17:49:58.235Z,2.90
2019-03-05T17:52:27.726Z,2.95
2019-03-05T17:54:56.886Z,3.08
2019-03-05T17:57:26.495Z,2.92
2019-03-05T17:59:56.271Z,3.02
2019-03-05T18:02:26.295Z,3.00
2019-03-05T18:04:56.676Z,2.90
2019-03-05T18:07:26.262Z,2.80
2019-03-05T18:09:55.872Z,2.72
2019-03-05T18:12:25.435Z,2.75
2019-03-05T18:14:56.940Z,2.85
2019-03-05T18:17:26.517Z,2.40
2019-03-05T18:19:56.072Z,2.85
2019-03-05T18:22:25.782Z,2.70
2019-03-05T18:24:55.115Z,2.60
2019-03-05T18:27:24.647Z,2.77
2019-03-05T18:29:54.539Z,2.72
2019-03-05T18:32:24.627Z,3.00
2019-03-05T18:34:55.287Z,2.70
2019-03-05T18:37:25.429Z,3.00
2019-03-05T18:39:56.130Z,2.90
2019-03-05T18:42:26.365Z,2.70
2019-03-05T18:44:57.068Z,2.65
2019-03-05T18:47:27.425Z,2.70
2019-03-05T18:49:59.315Z,2.60
2019-03-05T18:52:29.269Z,2.58
2019-03-05T18:54:59.832Z,2.90
2019-03-05T18:57:29.987Z,2.52
2019-03-05T19:00:00.671Z,2.70
2019-03-05T19:02:30.966Z,2.62
2019-03-05T19:05:02.344Z,2.70
2019-03-05T19:07:32.168Z,2.60
2019-03-05T19:10:02.616Z,2.80
2019-03-05T19:12:32.800Z,2.77
2019-03-05T19:15:03.747Z,2.65
2019-03-05T19:17:35.286Z,2.72
2019-03-05T19:20:05.049Z,2.72
2019-03-05T19:22:35.036Z,2.52
2019-03-05T19:25:05.522Z,2.58
2019-03-05T19:27:35.288Z,2.77
2019-03-05T19:30:06.131Z,2.62
2019-03-05T19:32:36.188Z,2.50
2019-03-05T19:35:06.864Z,2.98
2019-03-05T19:37:39.460Z,2.90
2019-03-05T19:40:11.468Z,2.55
2019-03-05T19:42:41.938Z,3.00
2019-03-05T19:45:13.113Z,2.65
2019-03-05T19:47:43.654Z,2.90
2019-03-05T19:50:16.640Z,2.40
2019-03-05T19:55:19.678Z,2.83
2019-03-05T20:00:37.019Z,2.50
2019-03-05T20:03:07.579Z,2.45
2019-03-05T20:05:37.615Z,2.75
2019-03-05T20:08:08.299Z,2.58
2019-03-05T20:10:38.779Z,2.40
2019-03-05T20:13:10.153Z,2.40
2019-03-05T20:15:40.527Z,2.45
2019-03-05T20:18:10.600Z,2.83
2019-03-05T20:20:41.489Z,2.37
2019-03-05T20:23:12.237Z,2.50
2019-03-05T20:25:43.249Z,2.45
2019-03-05T20:28:13.746Z,2.37
2019-03-05T20:30:44.388Z,2.08
2019-03-05T20:33:15.029Z,2.47
2019-03-05T20:35:46.267Z,2.30
2019-03-05T20:38:16.796Z,2.50
2019-03-05T20:40:47.458Z,2.70
2019-03-05T20:43:17.944Z,2.55
2019-03-05T20:45:48.840Z,2.30
2019-03-05T20:48:19.146Z,2.30
2019-03-05T20:50:49.690Z,2.30
2019-03-05T20:53:19.472Z,2.10
2019-03-05T20:55:50.066Z,2.50
2019-03-05T20:58:21.684Z,2.08
2019-03-05T21:00:51.586Z,2.33
2019-03-05T21:03:22.371Z,2.30
2019-03-05T21:05:52.688Z,2.12
2019-03-05T21:08:22.715Z,1.90
2019-03-05T21:10:53.097Z,2.30
2019-03-05T21:13:23.327Z,1.90
2019-03-05T21:15:53.115Z,2.52
2019-03-05T21:18:23.487Z,2.30
2019-03-05T21:20:53.207Z,2.20
2019-03-05T21:23:22.821Z,2.30
2019-03-05T21:25:52.383Z,2.35
2019-03-05T21:28:22.633Z,2.72
2019-03-05T21:30:52.210Z,2.40
2019-03-05T21:33:22.772Z,1.92
2019-03-05T21:35:52.673Z,2.27
2019-03-05T21:38:22.249Z,2.25
2019-03-05T21:40:52.620Z,2.40
2019-03-05T21:43:22.619Z,2.67
2019-03-05T21:45:52.994Z,2.35
2019-03-05T21:48:22.451Z,2.52
2019-03-05T21:50:51.407Z,2.95
2019-03-05T21:53:20.831Z,2.52
2019-03-05T21:55:50.410Z,2.98
2019-03-05T21:58:19.810Z,2.50
2019-03-05T22:00:52.131Z,2.42
2019-03-05T22:03:22.479Z,2.55
2019-03-05T22:05:52.072Z,2.33
2019-03-05T22:08:21.550Z,2.58
2019-03-05T22:10:51.563Z,2.65
2019-03-05T22:13:20.894Z,2.33
2019-03-05T22:15:49.982Z,2.58
2019-03-05T22:18:19.649Z,2.55
2019-03-05T22:20:48.764Z,2.70
2019-03-05T22:23:17.770Z,2.47
2019-03-05T22:25:47.195Z,2.47
2019-03-05T22:28:16.380Z,2.58
2019-03-05T22:30:45.338Z,2.33
2019-03-05T22:33:14.228Z,2.58
2019-03-05T22:35:43.465Z,2.17
2019-03-05T22:38:12.808Z,2.00
2019-03-05T22:40:41.717Z,2.33
2019-03-05T22:43:11.053Z,2.20
2019-03-05T22:45:40.031Z,2.27
2019-03-05T22:48:09.254Z,2.47
2019-03-05T22:50:38.191Z,2.45
2019-03-05T22:53:07.415Z,2.30
2019-03-05T22:55:36.240Z,2.35
2019-03-05T22:58:05.223Z,2.22
2019-03-05T23:01:04.076Z,2.20
2019-03-05T23:03:33.013Z,2.20
2019-03-05T23:06:02.528Z,2.42
2019-03-05T23:08:31.440Z,2.20
2019-03-05T23:11:00.417Z,2.12
2019-03-05T23:13:29.808Z,2.20
2019-03-05T23:15:58.811Z,2.33
2019-03-05T23:18:27.908Z,2.20
2019-03-05T23:20:56.848Z,2.08
2019-03-05T23:23:25.722Z,2.60
2019-03-05T23:25:54.626Z,2.30
2019-03-05T23:28:23.654Z,2.30
2019-03-05T23:30:52.629Z,2.60
2019-03-05T23:33:21.374Z,2.08
2019-03-05T23:35:50.284Z,2.37
2019-03-05T23:38:19.219Z,2.25
2019-03-05T23:40:48.335Z,2.20
2019-03-05T23:43:17.146Z,2.55
2019-03-05T23:45:45.998Z,2.20
2019-03-05T23:48:14.803Z,2.17
2019-03-05T23:50:43.674Z,2.30
2019-03-05T23:53:12.713Z,2.00
2019-03-05T23:55:41.571Z,2.10
2019-03-05T23:58:10.356Z,2.40
